createdAt,value
2022-09-13T00:00:17.192Z,85.53
2022-09-13T00:05:18.754Z,85.34
2022-09-13T00:10:20.888Z,86.40
2022-09-13T00:15:22.488Z,86.74
2022-09-13T00:20:24.131Z,87.25
2022-09-13T00:25:25.649Z,87.53
2022-09-13T00:30:27.201Z,87.12
2022-09-13T00:35:28.962Z,86.94
2022-09-13T00:40:30.694Z,87.26
2022-09-13T00:45:32.358Z,86.73
2022-09-13T00:50:48.132Z,87.69
2022-09-13T00:55:51.650Z,87.37
2022-09-13T01:00:53.785Z,87.22
2022-09-13T01:06:02.580Z,86.38
2022-09-13T01:11:06.538Z,86.67
2022-09-13T01:16:08.392Z,87.12
2022-09-13T01:21:28.496Z,86.43
2022-09-13T01:27:04.272Z,87.57
2022-09-13T01:32:29.042Z,87.06
2022-09-13T01:37:39.769Z,87.61
2022-09-13T01:42:54.649Z,86.98
2022-09-13T01:48:05.920Z,87.10
2022-09-13T01:53:18.395Z,87.18
2022-09-13T01:58:28.852Z,86.75
2022-09-13T02:03:48.618Z,85.85
2022-09-13T02:08:54.360Z,85.66
2022-09-13T02:14:05.924Z,85.75
2022-09-13T02:19:13.627Z,85.46
2022-09-13T02:24:21.060Z,86.05
2022-09-13T02:29:24.683Z,86.37
2022-09-13T02:34:34.752Z,86.30
2022-09-13T02:39:38.606Z,86.27
2022-09-13T02:44:45.926Z,86.54
2022-09-13T02:50:25.826Z,86.12
2022-09-13T02:55:36.500Z,85.68
2022-09-13T03:00:39.128Z,85.47
2022-09-13T03:05:40.922Z,85.97
2022-09-13T03:10:55.666Z,86.01
2022-09-13T03:16:03.122Z,86.04
2022-09-13T03:21:16.081Z,86.64
2022-09-13T03:26:41.215Z,87.40
2022-09-13T03:31:50.674Z,86.72
2022-09-13T03:36:56.721Z,87.10
2022-09-13T03:42:01.150Z,86.61
2022-09-13T03:47:04.126Z,85.89
2022-09-13T03:52:06.302Z,86.02
2022-09-13T03:57:09.783Z,85.89
2022-09-13T04:02:12.018Z,85.47
2022-09-13T04:07:18.053Z,85.52
2022-09-13T04:12:19.728Z,85.96
2022-09-13T04:17:21.230Z,85.78
2022-09-13T04:22:22.739Z,85.24
2022-09-13T04:27:25.686Z,84.70
2022-09-13T04:32:27.203Z,85.14
2022-09-13T04:37:28.693Z,84.39
2022-09-13T04:42:30.223Z,84.67
2022-09-13T04:47:31.796Z,84.56
2022-09-13T04:52:33.642Z,84.70
2022-09-13T04:57:35.165Z,83.72
2022-09-13T05:02:36.977Z,83.98
2022-09-13T05:07:39.319Z,83.90
2022-09-13T05:12:40.917Z,84.47
2022-09-13T05:17:42.618Z,84.03
2022-09-13T05:22:44.143Z,84.22
2022-09-13T05:27:46.026Z,83.05
2022-09-13T05:32:47.566Z,82.70
2022-09-13T05:37:49.576Z,82.23
2022-09-13T05:42:53.179Z,81.73
2022-09-13T05:47:54.708Z,82.08
2022-09-13T05:52:56.781Z,81.71
2022-09-13T05:57:58.349Z,81.24
2022-09-13T06:03:00.762Z,81.33
2022-09-13T06:08:02.606Z,80.99
2022-09-13T06:13:04.116Z,80.63
2022-09-13T06:18:06.831Z,79.65
2022-09-13T06:23:08.376Z,78.27
2022-09-13T06:28:10.213Z,78.72
2022-09-13T06:33:11.751Z,78.49
2022-09-13T06:38:13.309Z,78.49
2022-09-13T06:43:15.770Z,78.35
2022-09-13T06:48:18.367Z,77.50
2022-09-13T06:53:19.913Z,77.79
2022-09-13T06:58:21.544Z,77.17
2022-09-13T07:03:23.046Z,77.33
2022-09-13T07:08:24.624Z,77.22
2022-09-13T07:13:26.162Z,77.45
2022-09-13T07:18:27.724Z,77.75
2022-09-13T07:23:30.863Z,77.86
2022-09-13T07:28:44.036Z,77.79
2022-09-13T07:33:45.565Z,78.69
2022-09-13T07:38:48.229Z,78.80
2022-09-13T07:43:49.938Z,78.67
2022-09-13T07:48:56.649Z,79.91
2022-09-13T07:54:00.158Z,79.51
2022-09-13T07:59:04.396Z,80.99
2022-09-13T08:04:08.061Z,81.48
2022-09-13T08:09:10.769Z,84.48
2022-09-13T08:14:15.355Z,82.86
2022-09-13T08:19:18.597Z,86.00
2022-09-13T08:24:21.746Z,85.98
2022-09-13T08:29:25.204Z,86.58
2022-09-13T08:34:27.283Z,86.21
2022-09-13T08:39:30.422Z,87.90
2022-09-13T08:44:38.188Z,90.29
2022-09-13T08:49:44.386Z,89.77
2022-09-13T08:54:45.885Z,90.35
2022-09-13T09:00:04.874Z,90.84
2022-09-13T09:05:19.461Z,92.73
2022-09-13T09:10:33.115Z,90.47
2022-09-13T09:15:42.446Z,90.44
2022-09-13T09:20:53.164Z,90.36
2022-09-13T09:25:58.260Z,90.85
2022-09-13T09:31:06.205Z,91.29
2022-09-13T09:36:40.904Z,91.14
2022-09-13T09:41:44.109Z,90.46
2022-09-13T09:46:52.170Z,91.64
2022-09-13T09:51:54.516Z,92.43
2022-09-13T09:56:56.204Z,91.69
2022-09-13T10:01:58.606Z,91.77
2022-09-13T10:07:25.048Z,89.71
2022-09-13T10:12:34.109Z,87.94
2022-09-13T10:17:35.725Z,88.51
2022-09-13T10:22:38.019Z,85.85
2022-09-13T10:27:45.455Z,85.69
2022-09-13T10:32:55.567Z,85.47
2022-09-13T10:37:57.180Z,84.64
2022-09-13T10:43:00.363Z,83.66
2022-09-13T10:48:11.071Z,83.25
2022-09-13T10:53:37.942Z,83.35
2022-09-13T10:58:39.515Z,79.83
2022-09-13T11:04:03.765Z,78.86
2022-09-13T11:09:16.663Z,76.96
2022-09-13T11:14:24.120Z,76.75
2022-09-13T11:19:52.094Z,75.28
2022-09-13T11:25:01.497Z,72.63
2022-09-13T11:30:20.158Z,71.14
2022-09-13T11:35:47.289Z,70.94
2022-09-13T11:41:12.620Z,69.58
2022-09-13T11:46:22.891Z,69.13
2022-09-13T11:51:42.558Z,69.10
2022-09-13T11:56:50.358Z,69.00
2022-09-13T12:01:56.246Z,70.04
2022-09-13T12:07:01.528Z,68.10
2022-09-13T12:12:13.609Z,67.12
2022-09-13T12:17:45.745Z,66.56
2022-09-13T12:22:47.928Z,66.17
2022-09-13T12:28:00.525Z,64.52
2022-09-13T12:33:05.904Z,63.93
2022-09-13T12:38:18.095Z,63.45
2022-09-13T12:44:02.511Z,64.28
2022-09-13T12:49:34.977Z,64.02
2022-09-13T12:54:55.273Z,63.87
2022-09-13T13:00:33.312Z,65.59
2022-09-13T13:05:42.025Z,63.40
2022-09-13T13:10:43.752Z,62.43
2022-09-13T13:15:49.791Z,62.97
2022-09-13T13:20:51.578Z,62.68
2022-09-13T13:26:01.365Z,61.47
2022-09-13T13:31:03.575Z,61.27
2022-09-13T13:36:22.338Z,61.87
2022-09-13T13:41:39.522Z,60.57
2022-09-13T13:46:41.558Z,62.13
2022-09-13T13:51:43.099Z,60.79
2022-09-13T13:56:49.218Z,60.91
2022-09-13T14:01:55.681Z,61.29
2022-09-13T14:07:06.016Z,61.02
2022-09-13T14:12:07.970Z,62.06
2022-09-13T14:17:40.694Z,62.39
2022-09-13T14:22:42.266Z,62.49
2022-09-13T14:27:44.272Z,62.39
2022-09-13T14:32:47.330Z,62.67
2022-09-13T14:37:48.942Z,62.04
2022-09-13T14:42:53.821Z,62.92
2022-09-13T14:47:58.183Z,62.19
2022-09-13T14:53:05.585Z,62.95
2022-09-13T14:58:15.959Z,63.05
2022-09-13T15:03:18.627Z,63.10
2022-09-13T15:08:35.341Z,62.66
2022-09-13T15:13:38.431Z,63.46
2022-09-13T15:18:39.973Z,64.15
2022-09-13T15:23:43.332Z,64.12
2022-09-13T15:28:44.809Z,64.63
2022-09-13T15:33:49.344Z,65.17
2022-09-13T15:39:09.559Z,65.27
2022-09-13T15:44:11.091Z,65.01
2022-09-13T15:49:16.589Z,64.54
2022-09-13T15:54:18.273Z,65.37
2022-09-13T15:59:21.193Z,65.27
2022-09-13T16:04:23.006Z,65.30
2022-09-13T16:09:25.532Z,65.26
2022-09-13T16:14:27.110Z,65.09
2022-09-13T16:19:28.758Z,65.60
2022-09-13T16:24:31.159Z,65.78
2022-09-13T16:29:32.759Z,65.50
2022-09-13T16:34:34.337Z,66.40
2022-09-13T16:39:35.874Z,66.04
2022-09-13T16:44:37.453Z,66.25
2022-09-13T16:49:39.061Z,66.45
2022-09-13T16:54:40.694Z,66.67
2022-09-13T16:59:42.391Z,66.58
2022-09-13T17:04:44.046Z,66.74
2022-09-13T17:09:45.826Z,67.01
2022-09-13T17:14:47.575Z,67.15
2022-09-13T17:19:49.322Z,67.52
2022-09-13T17:24:50.859Z,67.22
2022-09-13T17:29:52.455Z,68.19
2022-09-13T17:34:54.030Z,68.13
2022-09-13T17:39:55.960Z,68.77
2022-09-13T17:44:58.632Z,68.45
2022-09-13T17:50:00.170Z,67.36
2022-09-13T17:55:02.427Z,67.94
2022-09-13T18:00:06.798Z,67.86
2022-09-13T18:05:12.955Z,68.09
2022-09-13T18:10:32.562Z,68.95
2022-09-13T18:15:37.174Z,69.41
2022-09-13T18:20:40.755Z,70.83
2022-09-13T18:25:42.692Z,71.34
2022-09-13T18:30:55.398Z,70.66
2022-09-13T18:36:02.480Z,71.97
2022-09-13T18:41:12.142Z,71.64
2022-09-13T18:46:18.468Z,72.23
2022-09-13T18:51:22.229Z,72.34
2022-09-13T18:56:24.716Z,72.46
2022-09-13T19:01:28.632Z,73.05
2022-09-13T19:06:32.671Z,72.93
2022-09-13T19:11:52.583Z,73.64
2022-09-13T19:16:56.497Z,73.75
2022-09-13T19:21:58.146Z,72.24
2022-09-13T19:27:01.617Z,71.19
2022-09-13T19:32:03.241Z,71.35
2022-09-13T19:37:04.851Z,71.29
2022-09-13T19:42:06.500Z,70.90
2022-09-13T19:47:53.251Z,71.00
2022-09-13T19:52:31.051Z,71.77
2022-09-13T19:57:32.570Z,72.16
2022-09-13T20:02:34.096Z,72.24
2022-09-13T20:07:35.606Z,72.50
2022-09-13T20:12:37.727Z,73.00
2022-09-13T20:17:39.361Z,73.16
2022-09-13T20:22:40.900Z,74.11
2022-09-13T20:27:42.442Z,74.41
2022-09-13T20:32:44.055Z,74.83
2022-09-13T20:37:46.204Z,75.03
2022-09-13T20:42:49.218Z,75.17
2022-09-13T20:47:50.716Z,75.70
2022-09-13T20:52:52.764Z,76.21
2022-09-13T20:57:54.817Z,76.75
2022-09-13T21:02:56.429Z,77.13
2022-09-13T21:08:21.151Z,77.56
2022-09-13T21:13:22.741Z,78.63
2022-09-13T21:18:25.045Z,79.35
2022-09-13T21:23:27.163Z,79.35
2022-09-13T21:28:29.061Z,79.91
2022-09-13T21:33:30.624Z,80.70
2022-09-13T21:38:34.219Z,81.04
2022-09-13T21:43:35.875Z,81.69
2022-09-13T21:48:37.500Z,81.87
2022-09-13T21:53:39.134Z,82.29
2022-09-13T21:58:41.297Z,82.53
2022-09-13T22:03:44.190Z,83.90
2022-09-13T22:08:51.016Z,83.82
2022-09-13T22:13:53.718Z,84.01
2022-09-13T22:19:03.296Z,81.78
2022-09-13T22:24:09.560Z,82.17
2022-09-13T22:29:11.607Z,82.50
2022-09-13T22:34:18.391Z,82.45
2022-09-13T22:39:19.924Z,83.44
2022-09-13T22:44:21.472Z,84.49
2022-09-13T22:49:23.086Z,84.80
2022-09-13T22:54:24.702Z,84.42
2022-09-13T22:59:26.344Z,84.57
2022-09-13T23:04:27.962Z,85.27
2022-09-13T23:09:29.505Z,85.18
2022-09-13T23:14:31.202Z,84.40
2022-09-13T23:19:32.760Z,84.77
2022-09-13T23:24:34.313Z,85.82
2022-09-13T23:29:36.020Z,85.90
2022-09-13T23:34:37.556Z,86.11
2022-09-13T23:39:39.326Z,86.17
2022-09-13T23:44:40.842Z,86.60
2022-09-13T23:49:43.613Z,86.07
2022-09-13T23:54:45.783Z,86.62
2022-09-13T23:59:47.281Z,86.79
